createdAt,value
2022-08-17T00:00:43.901Z,98970.91
2022-08-17T00:03:28.336Z,98973.63
2022-08-17T00:06:04.453Z,98976.31
2022-08-17T00:08:47.081Z,98985.97
2022-08-17T00:11:34.972Z,98974.00
2022-08-17T00:14:19.017Z,98968.06
2022-08-17T00:16:56.513Z,98960.81
2022-08-17T00:19:27.489Z,98966.78
2022-08-17T00:22:34.181Z,98975.06
2022-08-17T00:24:52.047Z,98971.78
2022-08-17T00:27:20.699Z,98963.63
2022-08-17T00:29:48.938Z,98968.91
2022-08-17T00:33:11.854Z,98968.16
2022-08-17T00:35:10.647Z,98972.91
2022-08-17T00:37:38.510Z,98968.28
2022-08-17T00:40:11.817Z,98970.88
2022-08-17T00:42:40.916Z,98972.56
2022-08-17T00:45:14.824Z,98974.88
2022-08-17T00:47:44.359Z,98972.97
2022-08-17T00:50:19.695Z,98970.31
2022-08-17T00:52:57.347Z,98965.34
2022-08-17T00:55:27.326Z,98963.25
2022-08-17T00:58:01.607Z,98962.59
2022-08-17T01:00:42.270Z,98956.50
2022-08-17T01:03:31.348Z,98961.63
2022-08-17T01:06:04.603Z,98968.94
2022-08-17T01:08:37.074Z,98971.66
2022-08-17T01:11:07.291Z,98968.16
2022-08-17T01:13:43.216Z,98967.81
2022-08-17T01:16:31.765Z,98968.22
2022-08-17T01:19:06.955Z,98968.78
2022-08-17T01:21:50.781Z,98970.06
2022-08-17T01:24:18.923Z,98968.53
2022-08-17T01:26:48.375Z,98970.47
2022-08-17T01:29:17.063Z,98969.88
2022-08-17T01:31:53.063Z,98961.09
2022-08-17T01:34:21.785Z,98965.44
2022-08-17T01:36:51.015Z,98969.88
2022-08-17T01:40:05.422Z,98970.41
2022-08-17T01:42:46.760Z,98965.53
2022-08-17T01:45:30.605Z,98976.66
2022-08-17T01:48:00.370Z,98975.25
2022-08-17T01:50:35.044Z,98979.84
2022-08-17T01:53:19.025Z,98974.38
2022-08-17T01:56:15.470Z,98979.00
2022-08-17T01:58:44.365Z,98971.72
2022-08-17T02:01:14.895Z,98969.84
2022-08-17T02:03:59.512Z,98972.00
2022-08-17T02:06:52.485Z,98972.16
2022-08-17T02:09:29.628Z,98960.63
2022-08-17T02:12:37.624Z,98963.50
2022-08-17T02:14:51.633Z,98966.59
2022-08-17T02:17:20.236Z,98966.13
2022-08-17T02:19:47.935Z,98964.25
2022-08-17T02:22:18.401Z,98967.13
2022-08-17T02:24:58.671Z,98972.03
2022-08-17T02:27:30.042Z,98969.09
2022-08-17T02:29:57.916Z,98964.97
2022-08-17T02:32:28.684Z,98962.72
2022-08-17T02:35:01.735Z,98968.09
2022-08-17T02:37:31.156Z,98971.84
2022-08-17T02:40:00.667Z,98971.25
2022-08-17T02:42:39.044Z,98975.91
2022-08-17T02:45:26.873Z,98978.28
2022-08-17T02:47:55.489Z,98976.09
2022-08-17T02:50:26.538Z,98981.34
2022-08-17T02:52:55.950Z,98974.59
2022-08-17T02:55:40.335Z,98985.00
2022-08-17T02:58:11.088Z,98984.88
2022-08-17T03:00:48.015Z,98976.88
2022-08-17T03:03:21.080Z,98981.94
2022-08-17T03:05:51.539Z,98987.13
2022-08-17T03:08:23.506Z,98989.09
2022-08-17T03:10:52.185Z,98989.81
2022-08-17T03:13:20.940Z,98981.06
2022-08-17T03:15:50.801Z,98987.91
2022-08-17T03:18:24.663Z,98988.63
2022-08-17T03:20:59.045Z,98982.38
2022-08-17T03:23:29.501Z,98980.75
2022-08-17T03:25:59.434Z,98987.25
2022-08-17T03:28:28.475Z,98978.41
2022-08-17T03:30:57.090Z,98981.13
2022-08-17T03:33:25.136Z,98987.75
2022-08-17T03:35:53.804Z,98992.94
2022-08-17T03:38:22.148Z,98997.94
2022-08-17T03:40:57.713Z,98997.22
2022-08-17T03:43:34.668Z,98998.09
2022-08-17T03:46:27.299Z,98993.41
2022-08-17T03:49:15.799Z,98999.13
2022-08-17T03:52:02.957Z,98991.84
2022-08-17T03:54:49.281Z,99000.28
2022-08-17T03:57:19.345Z,99004.53
2022-08-17T03:59:48.223Z,99007.56
2022-08-17T04:02:30.491Z,99011.06
2022-08-17T04:05:00.034Z,99023.75
2022-08-17T04:07:31.679Z,99016.75
2022-08-17T04:09:59.679Z,99021.38
2022-08-17T04:12:31.772Z,99023.69
2022-08-17T04:15:00.039Z,99038.69
2022-08-17T04:17:30.211Z,99034.41
2022-08-17T04:19:58.160Z,99037.94
2022-08-17T04:22:30.847Z,99043.56
2022-08-17T04:25:16.928Z,99039.97
2022-08-17T04:27:44.701Z,99047.50
2022-08-17T04:30:14.464Z,99049.38
2022-08-17T04:33:03.814Z,99050.13
2022-08-17T04:35:47.949Z,99049.09
2022-08-17T04:38:22.260Z,99055.13
2022-08-17T04:41:09.642Z,99053.38
2022-08-17T04:43:40.401Z,99059.19
2022-08-17T04:46:26.106Z,99052.13
2022-08-17T04:48:57.935Z,99047.84
2022-08-17T04:51:39.804Z,99063.28
2022-08-17T04:54:21.612Z,99055.78
2022-08-17T04:56:50.328Z,99060.31
2022-08-17T04:59:22.593Z,99067.47
2022-08-17T05:01:52.988Z,99081.00
2022-08-17T05:04:35.020Z,99077.13
2022-08-17T05:07:04.805Z,99077.59
2022-08-17T05:09:32.632Z,99074.88
2022-08-17T05:12:03.223Z,99074.00
2022-08-17T05:14:33.639Z,99078.63
2022-08-17T05:17:09.400Z,99079.28
2022-08-17T05:19:40.058Z,99084.28
2022-08-17T05:22:09.312Z,99089.22
2022-08-17T05:24:39.143Z,99093.19
2022-08-17T05:27:14.302Z,99094.16
2022-08-17T05:29:47.708Z,99094.69
2022-08-17T05:32:38.549Z,99100.28
2022-08-17T05:35:07.472Z,99097.41
2022-08-17T05:37:36.030Z,99096.63
2022-08-17T05:40:05.730Z,99096.81
2022-08-17T05:42:34.349Z,99094.03
2022-08-17T05:45:02.797Z,99095.97
2022-08-17T05:47:31.863Z,99099.47
2022-08-17T05:50:02.081Z,99096.13
2022-08-17T05:52:48.322Z,99096.91
2022-08-17T05:55:40.759Z,99096.00
2022-08-17T05:58:47.618Z,99093.84
2022-08-17T06:02:01.680Z,99099.00
2022-08-17T06:05:27.248Z,99093.25
2022-08-17T06:08:56.599Z,99090.13
2022-08-17T06:11:54.251Z,99093.84
2022-08-17T06:14:51.996Z,99093.59
2022-08-17T06:17:25.186Z,99091.84
2022-08-17T06:20:00.643Z,99096.13
2022-08-17T06:22:36.807Z,99097.56
2022-08-17T06:25:38.089Z,99100.81
2022-08-17T06:28:14.835Z,99107.09
2022-08-17T06:31:15.500Z,99090.81
2022-08-17T06:33:46.508Z,99092.22
2022-08-17T06:36:49.648Z,99093.81
2022-08-17T06:39:48.818Z,99098.13
2022-08-17T06:43:27.868Z,99111.78
2022-08-17T06:46:28.378Z,99115.41
2022-08-17T06:49:22.100Z,99142.00
2022-08-17T06:52:12.436Z,99150.91
2022-08-17T06:55:22.000Z,99150.47
2022-08-17T06:57:59.070Z,99165.66
2022-08-17T07:00:39.428Z,99166.94
2022-08-17T07:03:38.002Z,99170.84
2022-08-17T07:06:18.820Z,99174.81
2022-08-17T07:09:34.763Z,99177.56
2022-08-17T07:12:26.202Z,99170.03
2022-08-17T07:15:25.540Z,99179.13
2022-08-17T07:17:54.441Z,99171.94
2022-08-17T07:20:23.259Z,99169.41
2022-08-17T07:23:40.249Z,99173.97
2022-08-17T07:26:10.331Z,99162.94
2022-08-17T07:28:40.397Z,99152.97
2022-08-17T07:31:13.418Z,99166.13
2022-08-17T07:34:14.791Z,99155.31
2022-08-17T07:36:43.538Z,99138.63
2022-08-17T07:39:12.087Z,99131.41
2022-08-17T07:41:57.536Z,99139.06
2022-08-17T07:44:28.103Z,99137.63
2022-08-17T07:47:15.890Z,99142.75
2022-08-17T07:49:49.566Z,99148.38
2022-08-17T07:52:50.619Z,99143.63
2022-08-17T07:55:35.538Z,99143.31
2022-08-17T07:58:04.133Z,99146.75
2022-08-17T08:00:33.906Z,99148.91
2022-08-17T08:03:28.396Z,99147.94
2022-08-17T08:06:02.260Z,99157.16
2022-08-17T08:08:43.639Z,99146.84
2022-08-17T08:11:16.983Z,99153.00
2022-08-17T08:13:46.116Z,99152.59
2022-08-17T08:16:29.393Z,99156.25
2022-08-17T08:19:02.452Z,99150.31
2022-08-17T08:22:07.789Z,99157.28
2022-08-17T08:25:17.930Z,99154.63
2022-08-17T08:28:06.608Z,99151.25
2022-08-17T08:30:47.910Z,99157.16
2022-08-17T08:33:51.963Z,99150.16
2022-08-17T08:37:16.584Z,99144.63
2022-08-17T08:40:11.547Z,99148.22
2022-08-17T08:43:26.956Z,99151.19
2022-08-17T08:46:56.717Z,99157.59
2022-08-17T08:50:30.184Z,99148.88
2022-08-17T08:53:26.466Z,99153.94
2022-08-17T08:56:39.240Z,99143.19
2022-08-17T08:59:57.651Z,99146.34
2022-08-17T09:03:03.567Z,99142.63
2022-08-17T09:06:33.533Z,99150.56
2022-08-17T09:09:35.221Z,99152.88
2022-08-17T09:12:47.810Z,99144.72
2022-08-17T09:15:35.316Z,99137.25
2022-08-17T09:19:00.744Z,99149.75
2022-08-17T09:21:48.241Z,99149.13
2022-08-17T09:24:43.742Z,99146.31
2022-08-17T09:27:19.040Z,99150.19
2022-08-17T09:29:58.941Z,99147.94
2022-08-17T09:32:50.013Z,99135.56
2022-08-17T09:35:44.659Z,99135.44
2022-08-17T09:38:41.837Z,99135.31
2022-08-17T09:41:59.111Z,99137.94
2022-08-17T09:44:55.676Z,99132.50
2022-08-17T09:47:45.607Z,99134.72
2022-08-17T09:51:05.262Z,99124.09
2022-08-17T09:53:20.069Z,99129.88
2022-08-17T09:56:19.710Z,99127.47
2022-08-17T09:59:21.823Z,99122.78
2022-08-17T10:02:43.518Z,99126.28
2022-08-17T10:05:37.651Z,99118.94
2022-08-17T10:08:52.696Z,99110.94
2022-08-17T10:11:55.438Z,99114.00
2022-08-17T10:14:53.333Z,99114.94
2022-08-17T10:18:07.996Z,99124.44
2022-08-17T10:21:27.893Z,99119.16
2022-08-17T10:25:22.316Z,99115.41
2022-08-17T10:27:59.757Z,99125.78
2022-08-17T10:30:36.860Z,99109.84
2022-08-17T10:33:16.782Z,99108.16
2022-08-17T10:36:27.443Z,99108.28
2022-08-17T10:39:52.202Z,99109.88
2022-08-17T10:43:15.685Z,99109.81
2022-08-17T10:46:30.239Z,99109.34
2022-08-17T10:49:36.643Z,99109.72
2022-08-17T10:52:28.001Z,99101.72
2022-08-17T10:54:58.801Z,99101.28
2022-08-17T10:57:31.836Z,99111.00
2022-08-17T11:00:09.708Z,99117.19
2022-08-17T11:02:52.931Z,99114.66
2022-08-17T11:06:15.656Z,99111.94
2022-08-17T11:09:06.199Z,99117.63
2022-08-17T11:12:20.189Z,99111.59
2022-08-17T11:15:49.703Z,99113.97
2022-08-17T11:19:10.201Z,99102.72
2022-08-17T11:22:17.871Z,99103.06
2022-08-17T11:24:51.496Z,99108.00
2022-08-17T11:27:33.547Z,99103.91
2022-08-17T11:30:41.744Z,99099.09
2022-08-17T11:33:38.210Z,99095.06
2022-08-17T11:36:56.261Z,99089.94
2022-08-17T11:39:42.642Z,99092.19
2022-08-17T11:42:49.189Z,99098.59
2022-08-17T11:45:54.607Z,99088.66
2022-08-17T11:49:27.730Z,99091.59
2022-08-17T11:52:12.178Z,99082.84
2022-08-17T11:54:49.109Z,99084.84
2022-08-17T11:57:26.500Z,99078.81
2022-08-17T12:00:11.910Z,99076.06
2022-08-17T12:02:48.839Z,99079.38
2022-08-17T12:05:17.476Z,99074.69
2022-08-17T12:08:10.908Z,99080.72
2022-08-17T12:11:16.869Z,99081.28
2022-08-17T12:14:07.409Z,99075.56
2022-08-17T12:16:36.313Z,99071.50
2022-08-17T12:19:06.158Z,99078.63
2022-08-17T12:22:33.101Z,99073.56
2022-08-17T12:25:22.977Z,99067.03
2022-08-17T12:28:06.168Z,99061.88
2022-08-17T12:30:36.885Z,99056.59
2022-08-17T12:33:13.800Z,99053.03
2022-08-17T12:36:06.246Z,99048.91
2022-08-17T12:38:38.389Z,99039.69
2022-08-17T12:41:28.443Z,99047.09
2022-08-17T12:44:21.540Z,99040.19
2022-08-17T12:47:22.330Z,99051.47
2022-08-17T12:50:29.805Z,99051.38
2022-08-17T12:53:02.208Z,99053.88
2022-08-17T12:55:37.617Z,99037.63
2022-08-17T12:58:14.437Z,99040.81
2022-08-17T13:01:05.188Z,99048.97
2022-08-17T13:03:46.577Z,99049.81
2022-08-17T13:06:37.088Z,99046.94
2022-08-17T13:09:40.069Z,99026.63
2022-08-17T13:12:09.445Z,99037.78
2022-08-17T13:14:38.064Z,99036.53
2022-08-17T13:17:13.198Z,99031.06
2022-08-17T13:19:50.517Z,99036.72
2022-08-17T13:22:25.716Z,99025.41
2022-08-17T13:25:03.746Z,99030.94
2022-08-17T13:27:34.147Z,99027.38
2022-08-17T13:30:12.274Z,99032.34
2022-08-17T13:32:47.400Z,99025.81
2022-08-17T13:35:50.544Z,99029.41
2022-08-17T13:38:49.628Z,99011.28
2022-08-17T13:41:37.628Z,99026.13
2022-08-17T13:44:44.800Z,99016.06
2022-08-17T13:47:19.985Z,99021.34
2022-08-17T13:49:49.643Z,99014.66
2022-08-17T13:52:38.834Z,99020.75
2022-08-17T13:55:20.722Z,99020.41
2022-08-17T13:58:06.580Z,99023.63
2022-08-17T14:00:37.499Z,99025.41
2022-08-17T14:03:06.657Z,99021.78
2022-08-17T14:05:37.437Z,99008.97
2022-08-17T14:08:07.313Z,99018.53
2022-08-17T14:10:36.779Z,99024.59
2022-08-17T14:13:07.528Z,99016.06
2022-08-17T14:15:54.738Z,99011.53
2022-08-17T14:18:50.582Z,99004.94
2022-08-17T14:21:13.943Z,99014.03
2022-08-17T14:23:43.678Z,99007.66
2022-08-17T14:26:23.288Z,99008.28
2022-08-17T14:28:56.370Z,99015.56
2022-08-17T14:31:27.002Z,99008.44
2022-08-17T14:33:55.584Z,98989.97
2022-08-17T14:36:24.005Z,99000.84
2022-08-17T14:38:52.569Z,99010.44
2022-08-17T14:41:23.603Z,99002.22
2022-08-17T14:43:55.659Z,99004.16
2022-08-17T14:46:24.919Z,99002.34
2022-08-17T14:48:57.387Z,99005.53
2022-08-17T14:51:30.245Z,99018.78
2022-08-17T14:53:58.725Z,99007.63
2022-08-17T14:56:27.724Z,99011.25
2022-08-17T14:59:00.357Z,99008.19
2022-08-17T15:01:29.010Z,99010.63
2022-08-17T15:04:22.397Z,99014.00
2022-08-17T15:06:50.923Z,99015.13
2022-08-17T15:09:19.393Z,99011.34
2022-08-17T15:11:48.319Z,99011.13
2022-08-17T15:14:17.104Z,99002.78
2022-08-17T15:16:45.572Z,99007.25
2022-08-17T15:19:14.578Z,99009.34
2022-08-17T15:21:43.093Z,99006.03
2022-08-17T15:24:11.545Z,99004.44
2022-08-17T15:26:40.759Z,99012.88
2022-08-17T15:29:11.967Z,99008.22
2022-08-17T15:31:40.729Z,99003.72
2022-08-17T15:34:09.146Z,99009.59
2022-08-17T15:36:37.961Z,99004.28
2022-08-17T15:39:09.890Z,99004.00
2022-08-17T15:41:38.322Z,99006.22
2022-08-17T15:44:06.723Z,98999.16
2022-08-17T15:46:35.651Z,98998.63
2022-08-17T15:49:05.096Z,98997.47
2022-08-17T15:51:36.341Z,99001.22
2022-08-17T15:54:18.788Z,98999.34
2022-08-17T15:56:52.950Z,98997.47
2022-08-17T15:59:21.334Z,98998.31
2022-08-17T16:03:14.821Z,98996.25
2022-08-17T16:04:39.649Z,98996.09
2022-08-17T16:07:12.453Z,98997.75
2022-08-17T16:09:42.010Z,98997.31
2022-08-17T16:12:19.430Z,98992.97
2022-08-17T16:14:50.903Z,98983.72
2022-08-17T16:17:39.912Z,98994.28
2022-08-17T16:20:20.666Z,98997.34
2022-08-17T16:22:51.293Z,98995.66
2022-08-17T16:25:52.676Z,98987.88
2022-08-17T16:28:19.394Z,98990.81
2022-08-17T16:30:47.967Z,98989.56
2022-08-17T16:33:17.108Z,98985.88
2022-08-17T16:35:45.495Z,98987.09
2022-08-17T16:38:13.907Z,98992.28
2022-08-17T16:40:42.747Z,98998.75
2022-08-17T16:43:12.193Z,98991.06
2022-08-17T16:45:41.183Z,98994.25
2022-08-17T16:48:12.009Z,98989.06
2022-08-17T16:50:42.777Z,98996.66
2022-08-17T16:53:31.298Z,98992.50
2022-08-17T16:55:59.685Z,98997.69
2022-08-17T16:58:28.200Z,98995.41
2022-08-17T17:00:59.726Z,98994.34
2022-08-17T17:03:31.685Z,98996.94
2022-08-17T17:06:28.443Z,98995.44
2022-08-17T17:09:04.084Z,99001.59
2022-08-17T17:11:51.097Z,99001.59
2022-08-17T17:14:43.896Z,99004.53
2022-08-17T17:17:36.239Z,99001.69
2022-08-17T17:20:24.930Z,99003.09
2022-08-17T17:23:25.562Z,99009.53
2022-08-17T17:26:33.143Z,99006.97
2022-08-17T17:29:47.339Z,99007.09
2022-08-17T17:32:45.184Z,99008.91
2022-08-17T17:35:49.885Z,99008.34
2022-08-17T17:38:55.493Z,99013.50
2022-08-17T17:41:34.582Z,99011.56
2022-08-17T17:44:13.043Z,99010.56
2022-08-17T17:46:59.371Z,99012.44
2022-08-17T17:49:44.285Z,99015.47
2022-08-17T17:52:59.689Z,99015.06
2022-08-17T17:55:49.661Z,99016.66
2022-08-17T17:58:36.284Z,99018.81
2022-08-17T18:01:39.511Z,99017.66
2022-08-17T18:04:25.917Z,99015.56
2022-08-17T18:07:28.294Z,99018.41
2022-08-17T18:10:29.789Z,99018.03
2022-08-17T18:13:28.165Z,99014.88
2022-08-17T18:16:00.834Z,99032.09
2022-08-17T18:18:40.079Z,99031.91
2022-08-17T18:21:36.132Z,99025.72
2022-08-17T18:24:08.826Z,99025.03
2022-08-17T18:26:45.614Z,99034.88
2022-08-17T18:29:37.680Z,99030.13
2022-08-17T18:32:32.017Z,99034.56
2022-08-17T18:35:29.122Z,99034.56
2022-08-17T18:38:27.800Z,99039.50
2022-08-17T18:41:23.859Z,99045.75
2022-08-17T18:44:06.766Z,99050.19
2022-08-17T18:46:37.746Z,99042.75
2022-08-17T18:49:30.053Z,99040.44
2022-08-17T18:52:30.158Z,99042.13
2022-08-17T18:55:23.694Z,99041.50
2022-08-17T18:57:58.011Z,99046.59
2022-08-17T19:00:47.592Z,99054.19
2022-08-17T19:03:24.600Z,99048.91
2022-08-17T19:06:25.968Z,99054.59
2022-08-17T19:08:54.598Z,99049.56
2022-08-17T19:11:32.151Z,99056.06
2022-08-17T19:14:10.451Z,99058.94
2022-08-17T19:17:10.568Z,99064.63
2022-08-17T19:20:03.818Z,99059.31
2022-08-17T19:23:16.944Z,99053.97
2022-08-17T19:25:58.979Z,99061.19
2022-08-17T19:29:16.627Z,99058.22
2022-08-17T19:31:59.213Z,99063.00
2022-08-17T19:34:34.663Z,99050.34
2022-08-17T19:37:35.135Z,99063.41
2022-08-17T19:40:54.841Z,99053.16
2022-08-17T19:43:48.200Z,99052.09
2022-08-17T19:47:57.768Z,99054.16
2022-08-17T19:50:59.345Z,99058.16
2022-08-17T19:54:18.395Z,99062.13
2022-08-17T19:57:21.432Z,99065.44
2022-08-17T20:00:13.356Z,99066.25
2022-08-17T20:03:09.106Z,99064.75
2022-08-17T20:06:12.048Z,99064.78
2022-08-17T20:09:44.516Z,99060.44
2022-08-17T20:12:29.900Z,99064.53
2022-08-17T20:15:19.307Z,99071.56
2022-08-17T20:17:48.979Z,99065.09
2022-08-17T20:20:38.890Z,99070.41
2022-08-17T20:23:23.526Z,99068.63
2022-08-17T20:26:49.102Z,99069.75
2022-08-17T20:29:39.603Z,99067.44
2022-08-17T20:32:31.773Z,99070.00
2022-08-17T20:35:20.868Z,99063.00
2022-08-17T20:38:13.692Z,99067.09
2022-08-17T20:41:04.780Z,99065.00
2022-08-17T20:43:37.148Z,99066.34
2022-08-17T20:46:26.994Z,99064.69
2022-08-17T20:49:44.679Z,99061.88
2022-08-17T20:52:55.781Z,99052.97
2022-08-17T20:55:55.773Z,99055.63
2022-08-17T20:58:30.674Z,99058.28
2022-08-17T21:01:14.749Z,99056.97
2022-08-17T21:03:51.133Z,99056.38
2022-08-17T21:06:24.430Z,99056.94
2022-08-17T21:09:16.283Z,99040.53
2022-08-17T21:12:05.568Z,99049.47
2022-08-17T21:14:56.547Z,99050.78
2022-08-17T21:17:42.310Z,99050.16
2022-08-17T21:21:04.799Z,99048.16
2022-08-17T21:24:03.187Z,99048.63
2022-08-17T21:27:22.143Z,99049.28
2022-08-17T21:30:34.821Z,99075.78
2022-08-17T21:33:26.374Z,99073.34
2022-08-17T21:36:23.904Z,99075.13
2022-08-17T21:39:09.267Z,99085.47
2022-08-17T21:41:56.379Z,99081.38
2022-08-17T21:44:37.915Z,99086.91
2022-08-17T21:47:30.801Z,99085.47
2022-08-17T21:50:24.263Z,99090.72
2022-08-17T21:53:01.084Z,99089.03
2022-08-17T21:55:33.395Z,99091.84
2022-08-17T21:58:19.945Z,99093.91
2022-08-17T22:01:34.654Z,99103.75
2022-08-17T22:04:12.137Z,99096.50
2022-08-17T22:06:57.197Z,99089.38
2022-08-17T22:09:43.315Z,99096.72
2022-08-17T22:12:18.029Z,99101.81
2022-08-17T22:15:07.507Z,99101.06
2022-08-17T22:17:46.699Z,99102.34
2022-08-17T22:20:21.674Z,99114.69
2022-08-17T22:23:08.514Z,99118.09
2022-08-17T22:26:01.014Z,99114.91
2022-08-17T22:28:56.563Z,99116.03
2022-08-17T22:31:32.840Z,99113.59
2022-08-17T22:34:04.224Z,99114.44
2022-08-17T22:36:41.961Z,99110.59
2022-08-17T22:39:10.452Z,99115.56
2022-08-17T22:41:56.040Z,99116.28
2022-08-17T22:44:52.851Z,99125.44
2022-08-17T22:47:41.083Z,99128.03
2022-08-17T22:50:27.023Z,99136.81
2022-08-17T22:53:35.888Z,99142.13
2022-08-17T22:56:23.842Z,99130.72
2022-08-17T22:59:18.204Z,99133.63
2022-08-17T23:02:21.876Z,99134.13
2022-08-17T23:05:16.894Z,99136.84
2022-08-17T23:07:47.600Z,99141.06
2022-08-17T23:10:16.284Z,99147.59
2022-08-17T23:12:46.230Z,99144.50
2022-08-17T23:15:20.045Z,99158.66
2022-08-17T23:17:48.767Z,99164.56
2022-08-17T23:20:17.848Z,99164.84
2022-08-17T23:22:52.439Z,99172.47
2022-08-17T23:25:31.849Z,99168.31
2022-08-17T23:28:03.983Z,99170.63
2022-08-17T23:30:40.008Z,99162.56
2022-08-17T23:33:25.774Z,99167.00
2022-08-17T23:35:54.381Z,99168.50
2022-08-17T23:38:25.139Z,99169.56
2022-08-17T23:40:54.965Z,99166.03
2022-08-17T23:43:28.201Z,99155.50
2022-08-17T23:46:00.579Z,99158.56
2022-08-17T23:48:36.583Z,99156.66
2022-08-17T23:51:19.121Z,99153.78
2022-08-17T23:53:53.312Z,99147.84
2022-08-17T23:56:33.681Z,99141.00
2022-08-17T23:59:02.870Z,99143.88
